Webb, Mississippi
Current Conditions -  °F | °C
As of 2:35 AM on Saturday 29 Nov 2014 (Local Time) from KCKM Reporting Station
Overcast Overcast  
Wind Chill: 41°   Ceiling: 4700
Heat Index: 46°   Visibility: 10mi
Dew Point: 37°   Wind: 13mph
Humidity: 71%   Direction: 170°S
Pressure: 30.1"   Gusts: NA
Location:  33.95°N, 90.34°W
Report Text: KCKM 290835Z AUTO 17011KT 10SM OVC047 08/03 A3010 RMK AO1
Loading
Personal Weather Stations






























Interactive Weather Map New forecast layout! Learn more

10-Day Weather Forecast

Advertisements
Track Severe Weather on mobile